sensor_id;sensor_type;location;lat;lon;timestamp;P1;durP1;ratioP1;P2;durP2;ratioP2
57828;SDS011;43657;52.698;6.314;2022-10-29T00:01:17;12.98;;;6.00;;
57828;SDS011;43657;52.698;6.314;2022-10-29T00:03:42;19.33;;;7.53;;
57828;SDS011;43657;52.698;6.314;2022-10-29T00:06:09;14.60;;;7.15;;
57828;SDS011;43657;52.698;6.314;2022-10-29T00:08:36;12.80;;;5.75;;
57828;SDS011;43657;52.698;6.314;2022-10-29T00:11:11;10.82;;;4.95;;
57828;SDS011;43657;52.698;6.314;2022-10-29T00:13:38;15.40;;;6.63;;
57828;SDS011;43657;52.698;6.314;2022-10-29T00:16:05;15.05;;;6.50;;
57828;SDS011;43657;52.698;6.314;2022-10-29T00:18:36;15.10;;;6.93;;
57828;SDS011;43657;52.698;6.314;2022-10-29T00:21:05;14.05;;;6.43;;
57828;SDS011;43657;52.698;6.314;2022-10-29T00:23:34;12.45;;;6.38;;
57828;SDS011;43657;52.698;6.314;2022-10-29T00:26:00;12.30;;;6.20;;
57828;SDS011;43657;52.698;6.314;2022-10-29T00:28:30;16.80;;;7.00;;
57828;SDS011;43657;52.698;6.314;2022-10-29T00:30:55;16.02;;;6.75;;
57828;SDS011;43657;52.698;6.314;2022-10-29T00:33:24;11.27;;;6.38;;
57828;SDS011;43657;52.698;6.314;2022-10-29T00:35:56;18.88;;;6.97;;
57828;SDS011;43657;52.698;6.314;2022-10-29T00:38:26;14.82;;;6.70;;
57828;SDS011;43657;52.698;6.314;2022-10-29T00:40:52;12.70;;;6.20;;
57828;SDS011;43657;52.698;6.314;2022-10-29T00:43:19;22.40;;;7.57;;
57828;SDS011;43657;52.698;6.314;2022-10-29T00:45:48;15.88;;;7.30;;
57828;SDS011;43657;52.698;6.314;2022-10-29T00:48:30;14.20;;;6.90;;
57828;SDS011;43657;52.698;6.314;2022-10-29T00:51:00;21.88;;;8.20;;
57828;SDS011;43657;52.698;6.314;2022-10-29T00:53:29;17.88;;;6.70;;
57828;SDS011;43657;52.698;6.314;2022-10-29T00:55:59;18.98;;;7.20;;
57828;SDS011;43657;52.698;6.314;2022-10-29T00:58:27;18.38;;;6.93;;
57828;SDS011;43657;52.698;6.314;2022-10-29T01:00:57;15.68;;;6.05;;
57828;SDS011;43657;52.698;6.314;2022-10-29T01:03:25;13.18;;;5.53;;
57828;SDS011;43657;52.698;6.314;2022-10-29T01:05:51;9.45;;;5.15;;
57828;SDS011;43657;52.698;6.314;2022-10-29T01:08:18;13.70;;;5.00;;
57828;SDS011;43657;52.698;6.314;2022-10-29T01:21:56;23.40;;;7.60;;
57828;SDS011;43657;52.698;6.314;2022-10-29T01:24:47;22.92;;;8.68;;
57828;SDS011;43657;52.698;6.314;2022-10-29T01:38:21;14.57;;;7.55;;
57828;SDS011;43657;52.698;6.314;2022-10-29T01:40:57;21.25;;;8.43;;
57828;SDS011;43657;52.698;6.314;2022-10-29T01:43:49;23.27;;;9.25;;
57828;SDS011;43657;52.698;6.314;2022-10-29T01:46:26;16.38;;;7.35;;
57828;SDS011;43657;52.698;6.314;2022-10-29T01:49:06;25.10;;;9.70;;
57828;SDS011;43657;52.698;6.314;2022-10-29T01:51:38;20.05;;;9.10;;
57828;SDS011;43657;52.698;6.314;2022-10-29T01:54:05;15.63;;;8.38;;
57828;SDS011;43657;52.698;6.314;2022-10-29T01:56:34;18.98;;;7.07;;
57828;SDS011;43657;52.698;6.314;2022-10-29T01:58:59;15.93;;;8.20;;
57828;SDS011;43657;52.698;6.314;2022-10-29T02:01:35;11.63;;;6.60;;
57828;SDS011;43657;52.698;6.314;2022-10-29T02:05:00;13.18;;;7.07;;
57828;SDS011;43657;52.698;6.314;2022-10-29T02:07:30;24.92;;;6.60;;
57828;SDS011;43657;52.698;6.314;2022-10-29T02:10:14;14.68;;;6.28;;
57828;SDS011;43657;52.698;6.314;2022-10-29T02:12:55;27.10;;;8.47;;
57828;SDS011;43657;52.698;6.314;2022-10-29T02:15:29;25.90;;;9.93;;
57828;SDS011;43657;52.698;6.314;2022-10-29T02:18:14;15.20;;;8.82;;
57828;SDS011;43657;52.698;6.314;2022-10-29T02:20:41;25.05;;;9.40;;
57828;SDS011;43657;52.698;6.314;2022-10-29T02:23:08;30.60;;;9.60;;
57828;SDS011;43657;52.698;6.314;2022-10-29T02:25:34;27.70;;;10.23;;
57828;SDS011;43657;52.698;6.314;2022-10-29T02:28:00;33.08;;;10.43;;
57828;SDS011;43657;52.698;6.314;2022-10-29T02:30:26;13.50;;;9.15;;
57828;SDS011;43657;52.698;6.314;2022-10-29T02:32:52;20.77;;;9.27;;
57828;SDS011;43657;52.698;6.314;2022-10-29T02:35:17;56.40;;;11.10;;
57828;SDS011;43657;52.698;6.314;2022-10-29T02:37:46;20.92;;;8.07;;
57828;SDS011;43657;52.698;6.314;2022-10-29T02:40:12;13.70;;;7.68;;
57828;SDS011;43657;52.698;6.314;2022-10-29T02:42:37;36.90;;;11.43;;
57828;SDS011;43657;52.698;6.314;2022-10-29T02:45:03;12.25;;;8.23;;
57828;SDS011;43657;52.698;6.314;2022-10-29T02:47:29;20.15;;;9.13;;
57828;SDS011;43657;52.698;6.314;2022-10-29T02:49:55;28.63;;;8.50;;
57828;SDS011;43657;52.698;6.314;2022-10-29T02:52:21;45.45;;;11.15;;
57828;SDS011;43657;52.698;6.314;2022-10-29T02:54:46;47.70;;;9.88;;
57828;SDS011;43657;52.698;6.314;2022-10-29T02:57:12;20.17;;;9.02;;
57828;SDS011;43657;52.698;6.314;2022-10-29T02:59:38;13.05;;;7.82;;
57828;SDS011;43657;52.698;6.314;2022-10-29T03:02:04;21.80;;;8.43;;
57828;SDS011;43657;52.698;6.314;2022-10-29T03:04:30;31.52;;;11.25;;
57828;SDS011;43657;52.698;6.314;2022-10-29T03:06:56;28.48;;;9.55;;
57828;SDS011;43657;52.698;6.314;2022-10-29T03:09:24;14.18;;;7.70;;
57828;SDS011;43657;52.698;6.314;2022-10-29T03:11:50;18.92;;;8.25;;
57828;SDS011;43657;52.698;6.314;2022-10-29T03:14:15;12.65;;;8.57;;
57828;SDS011;43657;52.698;6.314;2022-10-29T03:16:41;45.92;;;11.25;;
57828;SDS011;43657;52.698;6.314;2022-10-29T03:19:07;37.92;;;12.55;;
57828;SDS011;43657;52.698;6.314;2022-10-29T03:21:33;33.80;;;11.85;;
57828;SDS011;43657;52.698;6.314;2022-10-29T03:23:59;22.25;;;9.45;;
57828;SDS011;43657;52.698;6.314;2022-10-29T03:26:24;12.20;;;9.23;;
57828;SDS011;43657;52.698;6.314;2022-10-29T03:28:50;12.00;;;7.68;;
57828;SDS011;43657;52.698;6.314;2022-10-29T03:31:16;21.30;;;9.27;;
57828;SDS011;43657;52.698;6.314;2022-10-29T03:33:42;19.02;;;7.93;;
57828;SDS011;43657;52.698;6.314;2022-10-29T03:36:07;23.15;;;9.70;;
57828;SDS011;43657;52.698;6.314;2022-10-29T03:38:34;38.70;;;11.65;;
57828;SDS011;43657;52.698;6.314;2022-10-29T03:40:59;13.30;;;8.38;;
57828;SDS011;43657;52.698;6.314;2022-10-29T03:43:25;13.50;;;9.00;;
57828;SDS011;43657;52.698;6.314;2022-10-29T03:45:52;18.38;;;9.48;;
57828;SDS011;43657;52.698;6.314;2022-10-29T03:48:19;15.30;;;9.07;;
57828;SDS011;43657;52.698;6.314;2022-10-29T03:51:06;28.83;;;10.63;;
57828;SDS011;43657;52.698;6.314;2022-10-29T03:53:32;14.15;;;8.95;;
57828;SDS011;43657;52.698;6.314;2022-10-29T03:55:59;35.08;;;9.93;;
57828;SDS011;43657;52.698;6.314;2022-10-29T03:58:25;39.83;;;13.70;;
57828;SDS011;43657;52.698;6.314;2022-10-29T04:00:56;8.60;;;7.80;;
57828;SDS011;43657;52.698;6.314;2022-10-29T04:03:23;14.57;;;10.07;;
57828;SDS011;43657;52.698;6.314;2022-10-29T04:05:50;11.38;;;8.30;;
57828;SDS011;43657;52.698;6.314;2022-10-29T04:08:16;12.65;;;8.60;;
57828;SDS011;43657;52.698;6.314;2022-10-29T04:10:45;10.32;;;7.88;;
57828;SDS011;43657;52.698;6.314;2022-10-29T04:13:12;29.80;;;10.82;;
57828;SDS011;43657;52.698;6.314;2022-10-29T04:15:39;8.38;;;7.22;;
57828;SDS011;43657;52.698;6.314;2022-10-29T04:18:06;15.70;;;8.20;;
57828;SDS011;43657;52.698;6.314;2022-10-29T04:20:32;11.43;;;8.52;;
57828;SDS011;43657;52.698;6.314;2022-10-29T04:22:58;23.90;;;9.77;;
57828;SDS011;43657;52.698;6.314;2022-10-29T04:27:49;13.65;;;8.98;;
57828;SDS011;43657;52.698;6.314;2022-10-29T04:30:18;24.10;;;10.57;;
57828;SDS011;43657;52.698;6.314;2022-10-29T04:32:44;20.13;;;11.10;;
57828;SDS011;43657;52.698;6.314;2022-10-29T04:35:09;26.90;;;11.13;;
57828;SDS011;43657;52.698;6.314;2022-10-29T04:37:35;31.25;;;11.02;;
57828;SDS011;43657;52.698;6.314;2022-10-29T04:40:00;27.80;;;11.27;;
57828;SDS011;43657;52.698;6.314;2022-10-29T04:42:26;23.42;;;11.80;;
57828;SDS011;43657;52.698;6.314;2022-10-29T04:44:52;25.65;;;12.60;;
57828;SDS011;43657;52.698;6.314;2022-10-29T04:47:17;26.73;;;13.15;;
57828;SDS011;43657;52.698;6.314;2022-10-29T04:49:43;11.98;;;10.63;;
57828;SDS011;43657;52.698;6.314;2022-10-29T04:52:08;16.80;;;11.63;;
57828;SDS011;43657;52.698;6.314;2022-10-29T04:54:34;17.25;;;11.38;;
57828;SDS011;43657;52.698;6.314;2022-10-29T04:56:59;13.70;;;11.98;;
57828;SDS011;43657;52.698;6.314;2022-10-29T04:59:25;18.73;;;12.80;;
57828;SDS011;43657;52.698;6.314;2022-10-29T05:01:50;17.13;;;11.88;;
57828;SDS011;43657;52.698;6.314;2022-10-29T05:04:16;25.70;;;12.77;;
57828;SDS011;43657;52.698;6.314;2022-10-29T05:06:41;26.92;;;13.73;;
57828;SDS011;43657;52.698;6.314;2022-10-29T05:09:07;18.45;;;13.27;;
57828;SDS011;43657;52.698;6.314;2022-10-29T05:11:33;39.85;;;15.52;;
57828;SDS011;43657;52.698;6.314;2022-10-29T05:13:58;17.75;;;13.50;;
57828;SDS011;43657;52.698;6.314;2022-10-29T05:16:24;25.20;;;14.95;;
57828;SDS011;43657;52.698;6.314;2022-10-29T05:18:49;22.73;;;13.80;;
57828;SDS011;43657;52.698;6.314;2022-10-29T05:21:15;40.05;;;15.35;;
57828;SDS011;43657;52.698;6.314;2022-10-29T05:23:41;19.95;;;14.27;;
57828;SDS011;43657;52.698;6.314;2022-10-29T05:26:06;34.75;;;16.02;;
57828;SDS011;43657;52.698;6.314;2022-10-29T05:28:32;26.77;;;15.73;;
57828;SDS011;43657;52.698;6.314;2022-10-29T05:30:58;36.10;;;16.42;;
57828;SDS011;43657;52.698;6.314;2022-10-29T05:33:25;33.63;;;16.80;;
57828;SDS011;43657;52.698;6.314;2022-10-29T05:35:51;83.72;;;24.33;;
57828;SDS011;43657;52.698;6.314;2022-10-29T05:38:16;84.30;;;24.92;;
57828;SDS011;43657;52.698;6.314;2022-10-29T05:40:42;34.95;;;17.25;;
57828;SDS011;43657;52.698;6.314;2022-10-29T05:43:12;24.98;;;17.00;;
57828;SDS011;43657;52.698;6.314;2022-10-29T05:45:39;74.45;;;22.63;;
57828;SDS011;43657;52.698;6.314;2022-10-29T05:48:05;25.90;;;17.55;;
57828;SDS011;43657;52.698;6.314;2022-10-29T05:50:31;56.38;;;21.40;;
57828;SDS011;43657;52.698;6.314;2022-10-29T05:52:58;62.67;;;22.52;;
57828;SDS011;43657;52.698;6.314;2022-10-29T05:55:25;29.33;;;16.30;;
57828;SDS011;43657;52.698;6.314;2022-10-29T05:57:58;46.35;;;19.75;;
57828;SDS011;43657;52.698;6.314;2022-10-29T06:00:26;40.50;;;18.75;;
57828;SDS011;43657;52.698;6.314;2022-10-29T06:02:54;36.08;;;19.08;;
57828;SDS011;43657;52.698;6.314;2022-10-29T06:05:20;38.83;;;19.35;;
57828;SDS011;43657;52.698;6.314;2022-10-29T06:07:51;32.42;;;18.50;;
57828;SDS011;43657;52.698;6.314;2022-10-29T06:10:21;68.97;;;22.50;;
57828;SDS011;43657;52.698;6.314;2022-10-29T06:12:47;62.22;;;22.85;;
57828;SDS011;43657;52.698;6.314;2022-10-29T06:15:13;37.90;;;20.08;;
57828;SDS011;43657;52.698;6.314;2022-10-29T06:17:39;29.63;;;18.48;;
57828;SDS011;43657;52.698;6.314;2022-10-29T06:20:06;31.98;;;18.73;;
57828;SDS011;43657;52.698;6.314;2022-10-29T06:22:33;33.92;;;19.00;;
57828;SDS011;43657;52.698;6.314;2022-10-29T06:24:58;34.38;;;18.67;;
57828;SDS011;43657;52.698;6.314;2022-10-29T06:27:24;40.92;;;20.23;;
57828;SDS011;43657;52.698;6.314;2022-10-29T06:29:50;43.65;;;19.35;;
57828;SDS011;43657;52.698;6.314;2022-10-29T06:32:15;50.60;;;21.25;;
57828;SDS011;43657;52.698;6.314;2022-10-29T06:34:41;41.90;;;21.13;;
57828;SDS011;43657;52.698;6.314;2022-10-29T06:37:06;57.85;;;22.75;;
57828;SDS011;43657;52.698;6.314;2022-10-29T06:39:32;60.45;;;23.77;;
57828;SDS011;43657;52.698;6.314;2022-10-29T06:41:58;57.28;;;22.75;;
57828;SDS011;43657;52.698;6.314;2022-10-29T06:44:23;43.58;;;21.15;;
57828;SDS011;43657;52.698;6.314;2022-10-29T06:46:49;50.15;;;22.98;;
57828;SDS011;43657;52.698;6.314;2022-10-29T06:49:14;52.58;;;23.02;;
57828;SDS011;43657;52.698;6.314;2022-10-29T06:51:40;57.92;;;23.08;;
57828;SDS011;43657;52.698;6.314;2022-10-29T06:54:06;65.15;;;23.92;;
57828;SDS011;43657;52.698;6.314;2022-10-29T06:56:31;39.75;;;20.45;;
57828;SDS011;43657;52.698;6.314;2022-10-29T06:58:58;54.17;;;21.48;;
57828;SDS011;43657;52.698;6.314;2022-10-29T07:01:24;61.50;;;23.10;;
57828;SDS011;43657;52.698;6.314;2022-10-29T07:03:52;31.55;;;18.65;;
57828;SDS011;43657;52.698;6.314;2022-10-29T07:06:18;27.30;;;17.48;;
57828;SDS011;43657;52.698;6.314;2022-10-29T07:08:44;24.80;;;16.73;;
57828;SDS011;43657;52.698;6.314;2022-10-29T07:11:09;25.15;;;17.35;;
57828;SDS011;43657;52.698;6.314;2022-10-29T07:13:35;26.42;;;18.00;;
57828;SDS011;43657;52.698;6.314;2022-10-29T07:16:02;26.65;;;17.13;;
57828;SDS011;43657;52.698;6.314;2022-10-29T07:18:27;26.08;;;17.58;;
57828;SDS011;43657;52.698;6.314;2022-10-29T07:20:53;56.08;;;22.08;;
57828;SDS011;43657;52.698;6.314;2022-10-29T07:23:18;37.35;;;19.83;;
57828;SDS011;43657;52.698;6.314;2022-10-29T07:25:44;33.17;;;18.10;;
57828;SDS011;43657;52.698;6.314;2022-10-29T07:28:14;43.70;;;22.33;;
57828;SDS011;43657;52.698;6.314;2022-10-29T07:30:41;48.17;;;21.90;;
57828;SDS011;43657;52.698;6.314;2022-10-29T07:33:08;40.55;;;21.08;;
57828;SDS011;43657;52.698;6.314;2022-10-29T07:35:34;40.55;;;23.67;;
57828;SDS011;43657;52.698;6.314;2022-10-29T07:38:03;41.22;;;22.05;;
57828;SDS011;43657;52.698;6.314;2022-10-29T07:40:30;63.42;;;25.15;;
57828;SDS011;43657;52.698;6.314;2022-10-29T07:42:56;42.85;;;21.92;;
57828;SDS011;43657;52.698;6.314;2022-10-29T07:45:21;43.20;;;22.95;;
57828;SDS011;43657;52.698;6.314;2022-10-29T07:47:47;45.53;;;23.10;;
57828;SDS011;43657;52.698;6.314;2022-10-29T07:50:13;37.60;;;20.52;;
57828;SDS011;43657;52.698;6.314;2022-10-29T07:52:39;38.30;;;20.88;;
57828;SDS011;43657;52.698;6.314;2022-10-29T07:55:05;37.00;;;18.90;;
57828;SDS011;43657;52.698;6.314;2022-10-29T07:57:31;32.88;;;18.88;;
57828;SDS011;43657;52.698;6.314;2022-10-29T07:59:57;38.05;;;19.13;;
57828;SDS011;43657;52.698;6.314;2022-10-29T08:02:23;41.30;;;23.20;;
57828;SDS011;43657;52.698;6.314;2022-10-29T08:04:48;43.63;;;33.30;;
57828;SDS011;43657;52.698;6.314;2022-10-29T08:07:14;54.30;;;31.95;;
57828;SDS011;43657;52.698;6.314;2022-10-29T08:09:42;46.30;;;29.35;;
57828;SDS011;43657;52.698;6.314;2022-10-29T08:12:11;55.75;;;34.70;;
57828;SDS011;43657;52.698;6.314;2022-10-29T08:14:54;41.53;;;31.48;;
57828;SDS011;43657;52.698;6.314;2022-10-29T08:17:34;41.92;;;27.40;;
57828;SDS011;43657;52.698;6.314;2022-10-29T08:20:05;44.15;;;26.40;;
57828;SDS011;43657;52.698;6.314;2022-10-29T08:22:31;48.17;;;25.77;;
57828;SDS011;43657;52.698;6.314;2022-10-29T08:24:57;44.83;;;25.85;;
57828;SDS011;43657;52.698;6.314;2022-10-29T08:27:22;39.28;;;25.42;;
57828;SDS011;43657;52.698;6.314;2022-10-29T08:29:48;44.35;;;27.83;;
57828;SDS011;43657;52.698;6.314;2022-10-29T08:32:13;40.60;;;25.88;;
57828;SDS011;43657;52.698;6.314;2022-10-29T08:34:39;43.22;;;27.52;;
57828;SDS011;43657;52.698;6.314;2022-10-29T08:37:05;46.45;;;27.20;;
57828;SDS011;43657;52.698;6.314;2022-10-29T08:39:30;44.55;;;27.23;;
57828;SDS011;43657;52.698;6.314;2022-10-29T08:44:51;38.13;;;26.60;;
57828;SDS011;43657;52.698;6.314;2022-10-29T08:47:29;44.03;;;27.58;;
57828;SDS011;43657;52.698;6.314;2022-10-29T08:50:29;57.15;;;32.22;;
57828;SDS011;43657;52.698;6.314;2022-10-29T08:53:05;48.63;;;29.38;;
57828;SDS011;43657;52.698;6.314;2022-10-29T08:55:41;41.15;;;28.00;;
57828;SDS011;43657;52.698;6.314;2022-10-29T09:00:40;46.58;;;28.95;;
57828;SDS011;43657;52.698;6.314;2022-10-29T09:03:10;40.67;;;26.63;;
57828;SDS011;43657;52.698;6.314;2022-10-29T09:11:02;40.10;;;25.95;;
57828;SDS011;43657;52.698;6.314;2022-10-29T09:22:09;32.95;;;22.33;;
57828;SDS011;43657;52.698;6.314;2022-10-29T09:30:18;32.70;;;23.15;;
57828;SDS011;43657;52.698;6.314;2022-10-29T09:35:37;40.03;;;29.17;;
57828;SDS011;43657;52.698;6.314;2022-10-29T09:38:05;62.13;;;42.13;;
57828;SDS011;43657;52.698;6.314;2022-10-29T09:40:41;32.15;;;22.67;;
57828;SDS011;43657;52.698;6.314;2022-10-29T09:46:22;28.15;;;22.27;;
57828;SDS011;43657;52.698;6.314;2022-10-29T09:49:09;28.35;;;22.20;;
57828;SDS011;43657;52.698;6.314;2022-10-29T09:51:40;29.25;;;22.70;;
57828;SDS011;43657;52.698;6.314;2022-10-29T09:54:13;28.17;;;20.88;;
57828;SDS011;43657;52.698;6.314;2022-10-29T09:56:40;29.70;;;21.90;;
57828;SDS011;43657;52.698;6.314;2022-10-29T09:59:15;29.48;;;21.83;;
57828;SDS011;43657;52.698;6.314;2022-10-29T10:01:53;26.52;;;20.90;;
57828;SDS011;43657;52.698;6.314;2022-10-29T10:14:25;23.73;;;19.48;;
57828;SDS011;43657;52.698;6.314;2022-10-29T10:17:51;30.25;;;21.15;;
57828;SDS011;43657;52.698;6.314;2022-10-29T10:23:47;24.73;;;17.27;;
57828;SDS011;43657;52.698;6.314;2022-10-29T10:26:35;23.52;;;17.92;;
57828;SDS011;43657;52.698;6.314;2022-10-29T10:31:42;25.80;;;19.88;;
57828;SDS011;43657;52.698;6.314;2022-10-29T10:39:47;29.88;;;18.08;;
57828;SDS011;43657;52.698;6.314;2022-10-29T10:42:24;23.10;;;16.73;;
57828;SDS011;43657;52.698;6.314;2022-10-29T10:44:52;26.10;;;17.23;;
57828;SDS011;43657;52.698;6.314;2022-10-29T10:47:28;22.13;;;15.88;;
57828;SDS011;43657;52.698;6.314;2022-10-29T10:50:37;22.77;;;17.38;;
57828;SDS011;43657;52.698;6.314;2022-10-29T10:53:48;23.90;;;16.50;;
57828;SDS011;43657;52.698;6.314;2022-10-29T10:56:27;28.65;;;15.95;;
57828;SDS011;43657;52.698;6.314;2022-10-29T10:59:11;23.98;;;16.15;;
57828;SDS011;43657;52.698;6.314;2022-10-29T11:01:43;27.50;;;15.43;;
57828;SDS011;43657;52.698;6.314;2022-10-29T11:04:28;22.13;;;15.30;;
57828;SDS011;43657;52.698;6.314;2022-10-29T11:07:01;20.92;;;15.20;;
57828;SDS011;43657;52.698;6.314;2022-10-29T11:09:39;26.15;;;15.45;;
57828;SDS011;43657;52.698;6.314;2022-10-29T11:15:33;22.63;;;15.02;;
57828;SDS011;43657;52.698;6.314;2022-10-29T11:21:00;21.02;;;13.57;;
57828;SDS011;43657;52.698;6.314;2022-10-29T11:29:01;23.77;;;15.35;;
57828;SDS011;43657;52.698;6.314;2022-10-29T11:40:05;26.30;;;15.50;;
57828;SDS011;43657;52.698;6.314;2022-10-29T11:42:49;24.00;;;15.98;;
57828;SDS011;43657;52.698;6.314;2022-10-29T11:45:43;24.08;;;15.07;;
57828;SDS011;43657;52.698;6.314;2022-10-29T11:50:51;22.45;;;15.35;;
57828;SDS011;43657;52.698;6.314;2022-10-29T11:53:52;21.83;;;14.60;;
57828;SDS011;43657;52.698;6.314;2022-10-29T11:56:43;19.75;;;14.23;;
57828;SDS011;43657;52.698;6.314;2022-10-29T11:59:12;20.88;;;13.65;;
57828;SDS011;43657;52.698;6.314;2022-10-29T12:01:52;20.58;;;13.52;;
57828;SDS011;43657;52.698;6.314;2022-10-29T12:04:32;22.83;;;12.43;;
57828;SDS011;43657;52.698;6.314;2022-10-29T12:07:10;19.55;;;13.50;;
57828;SDS011;43657;52.698;6.314;2022-10-29T12:09:45;19.08;;;11.70;;
57828;SDS011;43657;52.698;6.314;2022-10-29T12:12:24;18.42;;;12.00;;
57828;SDS011;43657;52.698;6.314;2022-10-29T12:15:19;19.80;;;11.93;;
57828;SDS011;43657;52.698;6.314;2022-10-29T12:18:12;20.35;;;12.00;;
57828;SDS011;43657;52.698;6.314;2022-10-29T12:20:49;19.50;;;12.07;;
57828;SDS011;43657;52.698;6.314;2022-10-29T12:32:21;19.55;;;12.45;;
57828;SDS011;43657;52.698;6.314;2022-10-29T12:37:41;20.77;;;10.88;;
57828;SDS011;43657;52.698;6.314;2022-10-29T12:40:27;16.45;;;10.45;;
57828;SDS011;43657;52.698;6.314;2022-10-29T12:42:59;19.27;;;10.45;;
57828;SDS011;43657;52.698;6.314;2022-10-29T12:45:47;17.02;;;10.10;;
57828;SDS011;43657;52.698;6.314;2022-10-29T12:48:25;18.60;;;10.00;;
57828;SDS011;43657;52.698;6.314;2022-10-29T12:56:50;16.40;;;11.18;;
57828;SDS011;43657;52.698;6.314;2022-10-29T13:01:48;19.65;;;11.15;;
57828;SDS011;43657;52.698;6.314;2022-10-29T13:04:24;19.40;;;12.43;;
57828;SDS011;43657;52.698;6.314;2022-10-29T13:07:03;17.05;;;11.32;;
57828;SDS011;43657;52.698;6.314;2022-10-29T13:09:47;18.77;;;11.27;;
57828;SDS011;43657;52.698;6.314;2022-10-29T13:12:14;16.77;;;10.52;;
57828;SDS011;43657;52.698;6.314;2022-10-29T13:15:20;15.45;;;10.18;;
57828;SDS011;43657;52.698;6.314;2022-10-29T13:17:50;18.08;;;10.10;;
57828;SDS011;43657;52.698;6.314;2022-10-29T13:20:23;14.70;;;10.50;;
57828;SDS011;43657;52.698;6.314;2022-10-29T13:25:49;15.63;;;9.88;;
57828;SDS011;43657;52.698;6.314;2022-10-29T13:30:48;15.30;;;9.55;;
57828;SDS011;43657;52.698;6.314;2022-10-29T13:36:00;16.15;;;9.38;;
57828;SDS011;43657;52.698;6.314;2022-10-29T13:48:56;15.40;;;8.43;;
57828;SDS011;43657;52.698;6.314;2022-10-29T13:51:27;13.23;;;7.65;;
57828;SDS011;43657;52.698;6.314;2022-10-29T13:56:50;17.83;;;8.05;;
57828;SDS011;43657;52.698;6.314;2022-10-29T13:59:40;15.27;;;7.45;;
57828;SDS011;43657;52.698;6.314;2022-10-29T14:02:17;13.57;;;8.00;;
57828;SDS011;43657;52.698;6.314;2022-10-29T14:04:55;13.38;;;7.82;;
57828;SDS011;43657;52.698;6.314;2022-10-29T14:07:29;9.38;;;6.75;;
57828;SDS011;43657;52.698;6.314;2022-10-29T14:10:05;17.02;;;7.03;;
57828;SDS011;43657;52.698;6.314;2022-10-29T14:12:39;14.10;;;7.10;;
57828;SDS011;43657;52.698;6.314;2022-10-29T14:15:10;12.07;;;6.45;;
57828;SDS011;43657;52.698;6.314;2022-10-29T14:17:39;12.83;;;6.53;;
57828;SDS011;43657;52.698;6.314;2022-10-29T14:20:17;13.02;;;6.95;;
57828;SDS011;43657;52.698;6.314;2022-10-29T14:22:51;12.93;;;6.88;;
57828;SDS011;43657;52.698;6.314;2022-10-29T14:30:43;13.82;;;7.60;;
57828;SDS011;43657;52.698;6.314;2022-10-29T14:33:44;12.65;;;6.78;;
57828;SDS011;43657;52.698;6.314;2022-10-29T14:38:36;12.25;;;6.97;;
57828;SDS011;43657;52.698;6.314;2022-10-29T14:41:05;13.38;;;6.53;;
57828;SDS011;43657;52.698;6.314;2022-10-29T14:43:31;13.32;;;6.85;;
57828;SDS011;43657;52.698;6.314;2022-10-29T14:48:49;11.18;;;6.50;;
57828;SDS011;43657;52.698;6.314;2022-10-29T14:51:22;12.00;;;6.53;;
57828;SDS011;43657;52.698;6.314;2022-10-29T14:53:59;10.63;;;6.80;;
57828;SDS011;43657;52.698;6.314;2022-10-29T14:56:33;12.57;;;6.47;;
57828;SDS011;43657;52.698;6.314;2022-10-29T15:01:32;12.02;;;7.13;;
57828;SDS011;43657;52.698;6.314;2022-10-29T15:04:11;13.02;;;7.20;;
57828;SDS011;43657;52.698;6.314;2022-10-29T15:06:45;11.52;;;6.85;;
57828;SDS011;43657;52.698;6.314;2022-10-29T15:09:15;14.52;;;7.60;;
57828;SDS011;43657;52.698;6.314;2022-10-29T15:11:58;11.63;;;7.45;;
57828;SDS011;43657;52.698;6.314;2022-10-29T15:14:47;13.13;;;7.15;;
57828;SDS011;43657;52.698;6.314;2022-10-29T15:17:21;13.57;;;8.32;;
57828;SDS011;43657;52.698;6.314;2022-10-29T15:19:51;12.60;;;7.72;;
57828;SDS011;43657;52.698;6.314;2022-10-29T15:22:31;13.63;;;7.28;;
57828;SDS011;43657;52.698;6.314;2022-10-29T15:25:00;12.48;;;8.02;;
57828;SDS011;43657;52.698;6.314;2022-10-29T15:27:28;13.52;;;8.35;;
57828;SDS011;43657;52.698;6.314;2022-10-29T15:29:57;11.88;;;7.43;;
57828;SDS011;43657;52.698;6.314;2022-10-29T15:32:23;13.20;;;7.65;;
57828;SDS011;43657;52.698;6.314;2022-10-29T15:34:52;12.20;;;8.07;;
57828;SDS011;43657;52.698;6.314;2022-10-29T15:37:25;14.27;;;7.57;;
57828;SDS011;43657;52.698;6.314;2022-10-29T15:40:08;10.90;;;8.13;;
57828;SDS011;43657;52.698;6.314;2022-10-29T15:42:47;15.30;;;7.72;;
57828;SDS011;43657;52.698;6.314;2022-10-29T15:45:14;14.75;;;8.25;;
57828;SDS011;43657;52.698;6.314;2022-10-29T15:47:48;11.70;;;7.60;;
57828;SDS011;43657;52.698;6.314;2022-10-29T15:54:24;13.68;;;7.78;;
57828;SDS011;43657;52.698;6.314;2022-10-29T15:57:06;11.63;;;7.32;;
57828;SDS011;43657;52.698;6.314;2022-10-29T15:59:46;16.65;;;8.48;;
57828;SDS011;43657;52.698;6.314;2022-10-29T16:02:24;11.38;;;7.78;;
57828;SDS011;43657;52.698;6.314;2022-10-29T16:04:54;14.80;;;8.25;;
57828;SDS011;43657;52.698;6.314;2022-10-29T16:07:20;12.38;;;8.70;;
57828;SDS011;43657;52.698;6.314;2022-10-29T16:09:47;12.27;;;8.52;;
57828;SDS011;43657;52.698;6.314;2022-10-29T16:12:19;13.45;;;8.57;;
57828;SDS011;43657;52.698;6.314;2022-10-29T16:14:45;13.32;;;8.65;;
57828;SDS011;43657;52.698;6.314;2022-10-29T16:17:15;12.18;;;8.80;;
57828;SDS011;43657;52.698;6.314;2022-10-29T16:19:48;13.50;;;9.20;;
57828;SDS011;43657;52.698;6.314;2022-10-29T16:22:15;17.05;;;9.63;;
57828;SDS011;43657;52.698;6.314;2022-10-29T16:24:43;14.48;;;9.25;;
57828;SDS011;43657;52.698;6.314;2022-10-29T16:27:28;15.75;;;9.75;;
57828;SDS011;43657;52.698;6.314;2022-10-29T16:30:02;13.55;;;9.35;;
57828;SDS011;43657;52.698;6.314;2022-10-29T16:32:28;15.32;;;10.07;;
57828;SDS011;43657;52.698;6.314;2022-10-29T16:34:53;17.30;;;10.48;;
57828;SDS011;43657;52.698;6.314;2022-10-29T16:37:19;12.93;;;9.68;;
57828;SDS011;43657;52.698;6.314;2022-10-29T16:39:45;16.25;;;10.02;;
57828;SDS011;43657;52.698;6.314;2022-10-29T16:42:18;16.67;;;9.32;;
57828;SDS011;43657;52.698;6.314;2022-10-29T16:44:51;18.10;;;14.23;;
57828;SDS011;43657;52.698;6.314;2022-10-29T16:47:17;24.98;;;13.60;;
57828;SDS011;43657;52.698;6.314;2022-10-29T16:49:42;17.05;;;12.50;;
57828;SDS011;43657;52.698;6.314;2022-10-29T16:52:08;16.35;;;11.40;;
57828;SDS011;43657;52.698;6.314;2022-10-29T16:54:34;14.18;;;10.85;;
57828;SDS011;43657;52.698;6.314;2022-10-29T16:57:00;15.65;;;11.70;;
57828;SDS011;43657;52.698;6.314;2022-10-29T16:59:26;16.20;;;11.05;;
57828;SDS011;43657;52.698;6.314;2022-10-29T17:01:52;16.65;;;10.93;;
57828;SDS011;43657;52.698;6.314;2022-10-29T17:04:17;21.92;;;11.82;;
57828;SDS011;43657;52.698;6.314;2022-10-29T17:06:43;15.82;;;10.80;;
57828;SDS011;43657;52.698;6.314;2022-10-29T17:09:10;15.10;;;11.18;;
57828;SDS011;43657;52.698;6.314;2022-10-29T17:11:35;17.13;;;11.52;;
57828;SDS011;43657;52.698;6.314;2022-10-29T17:14:01;18.63;;;11.70;;
57828;SDS011;43657;52.698;6.314;2022-10-29T17:16:27;18.42;;;10.98;;
57828;SDS011;43657;52.698;6.314;2022-10-29T17:18:52;18.10;;;11.70;;
57828;SDS011;43657;52.698;6.314;2022-10-29T17:21:18;18.05;;;12.20;;
57828;SDS011;43657;52.698;6.314;2022-10-29T17:23:43;12.80;;;10.90;;
57828;SDS011;43657;52.698;6.314;2022-10-29T17:26:09;14.00;;;10.82;;